Aeroporto :
LOGIN :

Iscrizione | Disclaimer

   EN    FR    IT 

 










Sommario :    VFR   VFR Marginale   IFR   IFR Intensivo   IFR Molto Intensivo
Visibilità : 
Base nubi : 
>= 8 km
>= 3000ft
5 / 8 km
1000 / 3000 ft
1500m / 5 km
500 / 1000 ft
800 / 1500m
200 / 500 ft
< 800m
< 200 ft
Simboli :   Temporali  Nebbia  Neve Forte  Precipitazioni Forti  Vento > 20 kt
SIGMETs :   Varie  Temporali  Ghiacco  Turbolenza  Onda orograficha  Ceneri Vulcaniche






- Altitudine del aeroporto : 408 ft
- Codice IATA : FKB


EDSB - Karlsruhe Baden Baden

ULTIMO METAR :
  • 220150Z AUTO 21008KT 9999 // FEW006/// OVC015/// 02/01 Q1034

METARs OBSOLETI :
  • 220120Z AUTO 21008KT 9999 // OVC016/// 02/01 Q1034
  • 220050Z AUTO 20010KT 9999 // OVC018/// 02/01 Q1034
  • 220020Z AUTO 20009KT 9999 // FEW005/// OVC019/// 02/01 Q1034
  • 212350Z AUTO 20010KT 9999 // FEW005/// OVC021/// 01/01 Q1034
  • 212320Z AUTO 19010KT 9999 // FEW005/// SCT018/// OVC023/// 01/01 Q1034

TAF TAF EDSB
Valido dal 22 a 00 ore il 23 a 00 ore UTC


212300Z 2200/2224 20008KT 8000 OVC015
BECMG 2200/2202 OVC010
TEMPO 2202/2204 4000 -SN OVC008
TEMPO 2204/2209 2000 SN OVC006
TEMPO 2209/2211 4000 -RASN OVC009
PROB30
TEMPO 2211/2221 3000 DZ OVC008



MetMap, La meteo Aeronautica in un colpo d'occhio ! - Copyright ORBIFLY Dicembre 2007 - Disclaimer

ORBIFLY MET'MAP TEAM :

Programmazione e sviluppo : Alexandra Zaïnal
Concezione : Baudouin d'Aumeries
Aiuto per la programmazione : Marc-Olivier Méhu
Supporto tecnico e logistico : Manuel Goepfert
Aiuto per la traduzione : Arnaldo La Scala

Contatto : metmap@orbifly.com




FONTI E CREDITI :

   NOAA